createdAt,value
2023-06-11T00:01:31.072Z,8.57
2023-06-11T00:03:58.908Z,9.02
2023-06-11T00:06:26.196Z,8.48
2023-06-11T00:08:55.537Z,11.80
2023-06-11T00:11:23.645Z,10.95
2023-06-11T00:13:51.623Z,10.50
2023-06-11T00:16:19.024Z,8.00
2023-06-11T00:18:46.692Z,10.00
2023-06-11T00:21:15.397Z,12.50
2023-06-11T00:23:42.795Z,10.38
2023-06-11T00:26:11.269Z,12.93
2023-06-11T00:28:41.586Z,10.02
2023-06-11T00:31:09.425Z,11.48
2023-06-11T00:33:36.673Z,10.38
2023-06-11T00:36:04.230Z,9.80
2023-06-11T00:38:31.606Z,10.88
2023-06-11T00:40:59.704Z,12.35
2023-06-11T00:43:27.832Z,11.60
2023-06-11T00:45:55.754Z,8.68
2023-06-11T00:48:23.498Z,11.75
2023-06-11T00:50:52.639Z,9.90
2023-06-11T00:53:23.143Z,9.48
2023-06-11T00:55:50.878Z,10.15
2023-06-11T00:58:19.301Z,9.05
2023-06-11T01:00:54.536Z,9.93
2023-06-11T01:03:28.407Z,8.30
2023-06-11T01:06:03.783Z,9.35
2023-06-11T01:08:36.279Z,9.77
2023-06-11T01:11:04.027Z,9.70
2023-06-11T01:13:34.688Z,9.85
2023-06-11T01:16:13.633Z,8.43
2023-06-11T01:19:13.466Z,11.07
2023-06-11T01:21:51.750Z,7.53
2023-06-11T01:24:41.346Z,8.57
2023-06-11T01:27:22.932Z,10.10
2023-06-11T01:29:52.148Z,8.02
2023-06-11T01:32:25.077Z,9.75
2023-06-11T01:35:04.845Z,8.18
2023-06-11T01:40:17.187Z,11.18
2023-06-11T01:42:52.090Z,8.57
2023-06-11T01:45:20.136Z,8.23
2023-06-11T01:47:47.341Z,7.95
2023-06-11T01:50:15.585Z,8.40
2023-06-11T01:52:42.930Z,9.45
2023-06-11T01:55:11.430Z,8.95
2023-06-11T01:57:40.003Z,8.27
2023-06-11T02:00:11.488Z,7.75
2023-06-11T02:02:48.731Z,10.25
2023-06-11T02:05:19.068Z,10.60
2023-06-11T02:07:46.953Z,9.95
2023-06-11T02:10:14.492Z,8.68
2023-06-11T02:12:41.853Z,8.25
2023-06-11T02:15:10.001Z,7.65
2023-06-11T02:17:37.725Z,9.35
2023-06-11T02:20:09.272Z,11.60
2023-06-11T02:22:36.497Z,8.60
2023-06-11T02:25:04.199Z,8.23
2023-06-11T02:27:33.498Z,8.88
2023-06-11T02:30:03.468Z,10.63
2023-06-11T02:32:32.064Z,10.73
2023-06-11T02:34:59.537Z,11.13
2023-06-11T02:37:28.108Z,9.90
2023-06-11T02:39:55.572Z,10.65
2023-06-11T02:42:23.028Z,8.65
2023-06-11T02:44:50.389Z,8.82
2023-06-11T02:47:17.694Z,10.00
2023-06-11T02:49:46.108Z,10.40
2023-06-11T02:52:13.513Z,11.38
2023-06-11T02:54:41.272Z,10.45
2023-06-11T02:57:08.652Z,9.77
2023-06-11T02:59:36.076Z,9.32
2023-06-11T03:02:03.600Z,11.13
2023-06-11T03:04:31.177Z,9.68
2023-06-11T03:06:58.416Z,10.00
2023-06-11T03:09:25.642Z,9.15
2023-06-11T03:11:53.482Z,9.68
2023-06-11T03:14:22.299Z,9.52
2023-06-11T03:16:49.596Z,11.35
2023-06-11T03:19:16.920Z,12.90
2023-06-11T03:21:44.861Z,11.13
2023-06-11T03:24:13.646Z,10.85
2023-06-11T03:26:40.951Z,9.57
2023-06-11T03:29:08.258Z,9.68
2023-06-11T03:31:44.972Z,10.40
2023-06-11T03:34:12.358Z,10.70
2023-06-11T03:36:40.133Z,9.55
2023-06-11T03:39:11.387Z,10.57
2023-06-11T03:41:38.613Z,10.43
2023-06-11T03:44:06.797Z,11.13
2023-06-11T03:46:34.614Z,11.15
2023-06-11T03:49:03.005Z,11.95
2023-06-11T03:51:30.800Z,11.20
2023-06-11T03:53:58.038Z,11.63
2023-06-11T03:56:25.942Z,11.43
2023-06-11T03:58:53.318Z,9.95
2023-06-11T04:01:21.738Z,10.90
2023-06-11T04:03:49.043Z,11.70
2023-06-11T04:06:17.462Z,11.18
2023-06-11T04:08:44.745Z,12.15
2023-06-11T04:11:12.829Z,12.68
2023-06-11T04:13:41.705Z,11.13
2023-06-11T04:16:09.570Z,10.63
2023-06-11T04:18:37.096Z,12.40
2023-06-11T04:21:04.584Z,11.73
2023-06-11T04:23:33.947Z,10.85
2023-06-11T04:26:03.104Z,10.93
2023-06-11T04:28:31.290Z,14.95
2023-06-11T04:30:59.498Z,10.45
2023-06-11T04:33:37.772Z,12.65
2023-06-11T04:36:09.156Z,11.60
2023-06-11T04:38:38.786Z,14.57
2023-06-11T04:41:07.738Z,10.98
2023-06-11T04:43:35.866Z,11.52
2023-06-11T04:46:05.220Z,11.45
2023-06-11T04:48:34.108Z,12.02
2023-06-11T04:51:02.585Z,12.25
2023-06-11T04:53:38.303Z,11.38
2023-06-11T04:56:06.946Z,12.02
2023-06-11T04:58:37.955Z,14.85
2023-06-11T05:01:06.368Z,11.68
2023-06-11T05:03:38.315Z,11.68
2023-06-11T05:06:09.725Z,13.43
2023-06-11T05:08:40.742Z,13.57
2023-06-11T05:11:08.303Z,12.05
2023-06-11T05:13:38.283Z,12.77
2023-06-11T05:16:07.106Z,12.38
2023-06-11T05:18:35.818Z,11.55
2023-06-11T05:21:06.510Z,11.85
2023-06-11T05:23:34.613Z,10.70
2023-06-11T05:26:13.258Z,12.90
2023-06-11T05:28:44.612Z,12.07
2023-06-11T05:31:14.206Z,12.40
2023-06-11T05:33:45.649Z,12.38
2023-06-11T05:36:12.918Z,11.05
2023-06-11T05:38:40.827Z,12.65
2023-06-11T05:41:08.644Z,13.02
2023-06-11T05:43:36.785Z,10.50
2023-06-11T05:46:04.499Z,11.93
2023-06-11T05:48:33.050Z,11.88
2023-06-11T05:51:00.741Z,10.45
2023-06-11T05:53:28.384Z,11.23
2023-06-11T05:55:57.346Z,14.90
2023-06-11T05:58:25.221Z,10.93
2023-06-11T06:00:52.935Z,12.00
2023-06-11T06:03:20.973Z,10.93
2023-06-11T06:05:48.518Z,11.20
2023-06-11T06:08:15.826Z,10.45
2023-06-11T06:10:44.382Z,11.10
2023-06-11T06:13:11.680Z,12.65
2023-06-11T06:15:39.621Z,11.60
2023-06-11T06:18:07.132Z,11.05
2023-06-11T06:20:41.653Z,11.55
2023-06-11T06:23:09.627Z,10.25
2023-06-11T06:25:39.498Z,9.60
2023-06-11T06:28:10.012Z,11.57
2023-06-11T06:30:40.050Z,9.73
2023-06-11T06:33:08.594Z,9.35
2023-06-11T06:35:36.427Z,13.00
2023-06-11T06:38:05.160Z,10.00
2023-06-11T06:40:34.161Z,11.50
2023-06-11T06:43:01.502Z,10.85
2023-06-11T06:45:34.912Z,10.25
2023-06-11T06:48:11.044Z,11.25
2023-06-11T06:50:38.704Z,11.07
2023-06-11T06:53:06.149Z,9.82
2023-06-11T06:55:33.304Z,9.15
2023-06-11T06:58:05.265Z,9.23
2023-06-11T07:00:33.343Z,8.88
2023-06-11T07:03:00.864Z,8.55
2023-06-11T07:05:28.900Z,10.15
2023-06-11T07:07:56.472Z,9.30
2023-06-11T07:10:24.144Z,10.80
2023-06-11T07:12:53.258Z,10.15
2023-06-11T07:15:20.408Z,13.27
2023-06-11T07:17:48.258Z,9.25
2023-06-11T07:20:17.473Z,9.27
2023-06-11T07:22:45.445Z,9.85
2023-06-11T07:25:13.471Z,8.63
2023-06-11T07:27:40.781Z,9.63
2023-06-11T07:30:10.110Z,8.50
2023-06-11T07:32:38.288Z,9.40
2023-06-11T07:35:06.418Z,9.20
2023-06-11T07:37:33.735Z,9.05
2023-06-11T07:40:01.265Z,9.43
2023-06-11T07:42:28.561Z,8.48
2023-06-11T07:44:56.099Z,8.07
2023-06-11T07:47:23.810Z,8.75
2023-06-11T07:49:51.287Z,9.30
2023-06-11T07:52:18.955Z,7.68
2023-06-11T07:54:47.143Z,8.45
2023-06-11T07:57:14.360Z,9.57
2023-06-11T07:59:44.568Z,8.27
2023-06-11T08:02:12.695Z,10.85
2023-06-11T08:04:40.170Z,9.15
2023-06-11T08:07:08.069Z,8.50
2023-06-11T08:09:36.903Z,9.27
2023-06-11T08:12:09.474Z,8.77
2023-06-11T08:14:37.495Z,8.27
2023-06-11T08:17:05.159Z,9.38
2023-06-11T08:19:32.419Z,11.05
2023-06-11T08:22:02.704Z,11.30
2023-06-11T08:24:32.084Z,8.38
2023-06-11T08:26:59.683Z,9.50
2023-06-11T08:29:27.046Z,8.57
2023-06-11T08:31:54.613Z,11.68
2023-06-11T08:34:22.036Z,8.27
2023-06-11T08:36:49.379Z,9.43
2023-06-11T08:39:17.220Z,9.25
2023-06-11T08:41:44.723Z,8.95
2023-06-11T08:44:12.024Z,8.98
2023-06-11T08:46:40.348Z,8.15
2023-06-11T08:49:09.045Z,9.50
2023-06-11T08:51:38.807Z,8.48
2023-06-11T08:54:08.286Z,7.50
2023-06-11T08:56:36.261Z,7.88
2023-06-11T08:59:04.555Z,7.45
2023-06-11T09:01:32.766Z,9.95
2023-06-11T09:04:01.381Z,7.50
2023-06-11T09:06:29.458Z,7.97
2023-06-11T09:09:09.430Z,9.43
2023-06-11T09:11:38.704Z,11.43
2023-06-11T09:14:07.426Z,9.82
2023-06-11T09:16:46.557Z,7.78
2023-06-11T09:19:17.559Z,9.25
2023-06-11T09:21:52.264Z,6.85
2023-06-11T09:24:21.329Z,6.78
2023-06-11T09:26:57.621Z,6.82
2023-06-11T09:29:27.669Z,7.80
2023-06-11T09:32:09.914Z,7.70
2023-06-11T09:34:43.645Z,7.95
2023-06-11T09:37:12.514Z,6.85
2023-06-11T09:39:43.220Z,7.15
2023-06-11T09:42:29.038Z,7.35
2023-06-11T09:45:00.530Z,7.53
2023-06-11T09:47:32.787Z,7.65
2023-06-11T09:50:00.552Z,6.80
2023-06-11T09:52:29.396Z,6.43
2023-06-11T09:54:57.867Z,6.53
2023-06-11T09:57:25.731Z,7.03
2023-06-11T09:59:53.567Z,7.15
2023-06-11T10:02:21.091Z,10.00
2023-06-11T10:04:48.859Z,6.32
2023-06-11T10:07:18.067Z,6.65
2023-06-11T10:09:47.225Z,6.82
2023-06-11T10:12:17.417Z,6.00
2023-06-11T10:14:54.306Z,7.65
2023-06-11T10:17:23.604Z,7.50
2023-06-11T10:19:52.984Z,6.32
2023-06-11T10:22:35.472Z,6.88
2023-06-11T10:25:04.776Z,6.22
2023-06-11T10:27:42.804Z,7.05
2023-06-11T10:30:10.967Z,6.78
2023-06-11T10:32:50.941Z,7.78
2023-06-11T10:35:26.735Z,6.43
2023-06-11T10:38:05.304Z,7.75
2023-06-11T10:40:42.375Z,8.20
2023-06-11T10:43:22.744Z,8.15
2023-06-11T10:46:04.443Z,6.75
2023-06-11T10:48:32.318Z,6.70
2023-06-11T10:51:09.211Z,6.28
2023-06-11T10:53:42.125Z,6.07
2023-06-11T10:56:13.481Z,6.40
2023-06-11T10:58:41.950Z,6.10
2023-06-11T11:01:09.748Z,5.60
2023-06-11T11:03:40.733Z,6.70
2023-06-11T11:06:09.922Z,6.88
2023-06-11T11:08:37.158Z,5.93
2023-06-11T11:11:06.182Z,6.57
2023-06-11T11:13:34.934Z,5.70
2023-06-11T11:16:03.857Z,6.43
2023-06-11T11:18:31.153Z,6.43
2023-06-11T11:20:58.448Z,6.80
2023-06-11T11:23:25.791Z,6.93
2023-06-11T11:25:53.451Z,6.40
2023-06-11T11:28:21.631Z,7.25
2023-06-11T11:30:52.405Z,6.78
2023-06-11T11:33:19.778Z,6.32
2023-06-11T11:35:51.660Z,8.98
2023-06-11T11:38:18.916Z,4.93
2023-06-11T11:40:46.200Z,6.43
2023-06-11T11:43:14.611Z,5.65
2023-06-11T11:45:48.274Z,8.90
2023-06-11T11:48:17.052Z,7.50
2023-06-11T11:50:46.452Z,6.40
2023-06-11T11:53:16.482Z,7.20
2023-06-11T11:56:00.277Z,5.65
2023-06-11T11:58:42.324Z,9.07
2023-06-11T12:01:23.291Z,7.53
2023-06-11T12:04:06.449Z,5.97
2023-06-11T12:06:33.876Z,7.32
2023-06-11T12:09:01.241Z,6.47
2023-06-11T12:11:28.723Z,7.38
2023-06-11T12:13:56.893Z,5.53
2023-06-11T12:16:24.789Z,7.07
2023-06-11T12:18:54.523Z,7.13
2023-06-11T12:21:28.181Z,8.10
2023-06-11T12:23:57.518Z,9.70
2023-06-11T12:26:24.817Z,7.72
2023-06-11T12:28:51.998Z,10.95
2023-06-11T12:31:19.288Z,8.20
2023-06-11T12:33:46.696Z,5.68
2023-06-11T12:36:13.939Z,7.97
2023-06-11T12:38:41.525Z,8.05
2023-06-11T12:41:09.071Z,6.07
2023-06-11T12:43:36.253Z,8.00
2023-06-11T12:46:03.836Z,11.68
2023-06-11T12:48:31.169Z,7.35
2023-06-11T12:50:58.521Z,7.65
2023-06-11T12:53:25.734Z,7.38
2023-06-11T12:55:53.132Z,8.98
2023-06-11T12:58:20.902Z,6.70
2023-06-11T13:00:47.970Z,9.35
2023-06-11T13:03:15.408Z,10.77
2023-06-11T13:05:42.688Z,5.55
2023-06-11T13:08:11.542Z,7.45
2023-06-11T13:10:41.526Z,6.63
2023-06-11T13:13:08.882Z,5.45
2023-06-11T13:15:36.386Z,7.32
2023-06-11T13:18:04.679Z,7.45
2023-06-11T13:20:32.244Z,7.45
2023-06-11T13:22:59.577Z,7.07
2023-06-11T13:25:26.872Z,6.78
2023-06-11T13:27:54.049Z,8.15
2023-06-11T13:30:21.494Z,8.25
2023-06-11T13:32:49.172Z,8.07
2023-06-11T13:35:16.611Z,9.45
2023-06-11T13:37:44.199Z,7.20
2023-06-11T13:40:11.979Z,7.68
2023-06-11T13:42:39.597Z,6.55
2023-06-11T13:45:07.355Z,8.35
2023-06-11T13:47:34.664Z,9.43
2023-06-11T13:50:02.050Z,7.35
2023-06-11T13:52:29.624Z,6.10
2023-06-11T13:54:56.785Z,6.65
2023-06-11T13:57:28.830Z,8.45
2023-06-11T13:59:56.446Z,5.78
2023-06-11T14:02:23.942Z,6.68
2023-06-11T14:04:53.446Z,7.38
2023-06-11T14:07:21.178Z,6.70
2023-06-11T14:09:48.850Z,8.73
2023-06-11T14:12:16.137Z,9.05
2023-06-11T14:14:45.679Z,7.93
2023-06-11T14:17:12.943Z,10.00
2023-06-11T14:19:40.535Z,5.80
2023-06-11T14:22:07.942Z,7.63
2023-06-11T14:24:35.202Z,7.22
2023-06-11T14:27:02.543Z,10.00
2023-06-11T14:29:29.744Z,9.70
2023-06-11T14:32:01.641Z,6.20
2023-06-11T14:34:29.137Z,5.88
2023-06-11T14:36:56.566Z,8.52
2023-06-11T14:39:25.509Z,8.35
2023-06-11T14:41:52.844Z,7.93
2023-06-11T14:44:20.124Z,6.40
2023-06-11T14:46:47.599Z,7.30
2023-06-11T14:49:20.905Z,6.90
2023-06-11T14:51:49.154Z,5.97
2023-06-11T14:54:16.633Z,5.38
2023-06-11T14:56:44.198Z,6.88
2023-06-11T14:59:12.437Z,9.10
2023-06-11T15:01:42.469Z,6.53
2023-06-11T15:04:12.505Z,6.82
2023-06-11T15:06:42.038Z,5.90
2023-06-11T15:09:10.229Z,5.95
2023-06-11T15:11:37.462Z,7.60
2023-06-11T15:14:06.027Z,6.07
2023-06-11T15:16:33.284Z,5.63
2023-06-11T15:19:00.889Z,7.57
2023-06-11T15:21:28.117Z,8.13
2023-06-11T15:23:55.447Z,6.40
2023-06-11T15:26:22.840Z,7.00
2023-06-11T15:28:50.147Z,9.45
2023-06-11T15:31:17.609Z,7.57
2023-06-11T15:33:44.947Z,8.02
2023-06-11T15:36:12.191Z,7.75
2023-06-11T15:38:39.404Z,8.88
2023-06-11T15:41:06.811Z,6.13
2023-06-11T15:43:34.117Z,8.35
2023-06-11T15:46:01.901Z,7.15
2023-06-11T15:48:29.297Z,6.13
2023-06-11T15:50:56.715Z,7.68
2023-06-11T15:53:23.944Z,8.57
2023-06-11T15:55:51.171Z,5.93
2023-06-11T15:58:18.431Z,7.95
2023-06-11T16:00:45.869Z,9.02
2023-06-11T16:03:15.291Z,9.70
2023-06-11T16:05:42.818Z,7.68
2023-06-11T16:08:10.101Z,8.93
2023-06-11T16:10:37.354Z,10.05
2023-06-11T16:13:04.510Z,8.15
2023-06-11T16:15:31.800Z,6.53
2023-06-11T16:17:58.975Z,8.13
2023-06-11T16:20:27.754Z,7.10
2023-06-11T16:22:54.983Z,7.80
2023-06-11T16:25:22.277Z,8.75
2023-06-11T16:27:49.695Z,6.80
2023-06-11T16:30:16.983Z,6.95
2023-06-11T16:32:44.754Z,6.03
2023-06-11T16:35:12.855Z,6.80
2023-06-11T16:37:41.437Z,7.38
2023-06-11T16:40:09.262Z,8.80
2023-06-11T16:42:36.493Z,8.43
2023-06-11T16:45:04.122Z,9.02
2023-06-11T16:47:31.584Z,8.43
2023-06-11T16:49:59.892Z,11.75
2023-06-11T16:52:29.107Z,9.82
2023-06-11T16:55:02.029Z,6.30
2023-06-11T16:57:29.781Z,10.23
2023-06-11T17:00:02.273Z,9.07
2023-06-11T17:02:32.989Z,7.55
2023-06-11T17:05:00.574Z,6.85
2023-06-11T17:07:27.980Z,9.35
2023-06-11T17:09:55.366Z,8.88
2023-06-11T17:12:22.772Z,6.20
2023-06-11T17:14:52.647Z,6.30
2023-06-11T17:17:21.571Z,6.47
2023-06-11T17:19:48.874Z,7.95
2023-06-11T17:22:16.393Z,6.65
2023-06-11T17:24:43.608Z,8.65
2023-06-11T17:27:12.378Z,6.40
2023-06-11T17:29:39.662Z,7.85
2023-06-11T17:32:07.593Z,7.18
2023-06-11T17:34:35.813Z,9.82
2023-06-11T17:37:04.165Z,6.57
2023-06-11T17:39:31.378Z,6.55
2023-06-11T17:41:58.722Z,7.25
2023-06-11T17:44:26.071Z,10.05
2023-06-11T17:46:53.701Z,7.85
2023-06-11T17:49:21.013Z,7.32
2023-06-11T17:51:49.633Z,7.70
2023-06-11T17:54:17.023Z,5.72
2023-06-11T17:56:45.464Z,9.18
2023-06-11T17:59:12.853Z,7.25
2023-06-11T18:01:40.362Z,7.13
2023-06-11T18:04:07.765Z,7.15
2023-06-11T18:06:35.169Z,10.57
2023-06-11T18:09:02.538Z,6.80
2023-06-11T18:11:30.629Z,7.00
2023-06-11T18:13:57.860Z,9.70
2023-06-11T18:16:25.103Z,6.57
2023-06-11T18:18:53.584Z,9.98
2023-06-11T18:21:20.996Z,6.25
2023-06-11T18:23:48.269Z,9.38
2023-06-11T18:26:15.782Z,6.90
2023-06-11T18:28:43.035Z,9.93
2023-06-11T18:31:10.494Z,8.82
2023-06-11T18:33:37.779Z,7.15
2023-06-11T18:36:05.456Z,9.65
2023-06-11T18:38:32.794Z,8.52
2023-06-11T18:41:00.147Z,9.07
2023-06-11T18:43:27.444Z,7.60
2023-06-11T18:45:54.662Z,11.63
2023-06-11T18:48:22.050Z,8.38
2023-06-11T18:50:50.085Z,10.63
2023-06-11T18:53:17.587Z,10.30
2023-06-11T18:55:44.878Z,8.68
2023-06-11T18:58:12.173Z,7.40
2023-06-11T19:00:39.399Z,8.00
2023-06-11T19:03:06.762Z,7.20
2023-06-11T19:05:34.242Z,8.90
2023-06-11T19:08:01.540Z,9.48
2023-06-11T19:10:28.847Z,10.52
2023-06-11T19:12:56.590Z,6.63
2023-06-11T19:15:24.048Z,8.85
2023-06-11T19:17:51.358Z,7.28
2023-06-11T19:20:18.644Z,7.95
2023-06-11T19:22:46.102Z,8.98
2023-06-11T19:25:13.479Z,10.98
2023-06-11T19:27:40.800Z,6.22
2023-06-11T19:30:08.589Z,6.45
2023-06-11T19:32:36.373Z,8.27
2023-06-11T19:35:04.191Z,7.15
2023-06-11T19:37:31.452Z,8.15
2023-06-11T19:39:59.524Z,9.57
2023-06-11T19:42:27.999Z,8.05
2023-06-11T19:44:56.714Z,7.15
2023-06-11T19:47:24.174Z,11.45
2023-06-11T19:49:51.546Z,9.23
2023-06-11T19:52:18.951Z,6.65
2023-06-11T19:54:51.710Z,6.20
2023-06-11T19:57:20.554Z,8.50
2023-06-11T19:59:49.808Z,9.20
2023-06-11T20:02:17.493Z,8.52
2023-06-11T20:04:45.022Z,6.38
2023-06-11T20:07:16.112Z,7.85
2023-06-11T20:09:43.349Z,7.97
2023-06-11T20:12:11.597Z,8.95
2023-06-11T20:14:39.141Z,7.93
2023-06-11T20:17:06.419Z,9.35
2023-06-11T20:19:36.744Z,15.43
2023-06-11T20:22:05.550Z,17.67
2023-06-11T20:24:33.275Z,17.27
2023-06-11T20:27:00.646Z,14.95
2023-06-11T20:29:27.881Z,26.70
2023-06-11T20:31:55.280Z,26.70
2023-06-11T20:34:22.610Z,19.40
2023-06-11T20:36:49.941Z,16.48
2023-06-11T20:39:17.264Z,16.58
2023-06-11T20:41:44.612Z,14.35
2023-06-11T20:44:11.848Z,28.67
2023-06-11T20:46:39.263Z,35.13
2023-06-11T20:49:07.185Z,21.27
2023-06-11T20:51:34.431Z,13.40
2023-06-11T20:54:01.921Z,19.73
2023-06-11T20:56:29.439Z,18.35
2023-06-11T20:58:56.815Z,17.73
2023-06-11T21:01:24.156Z,15.25
2023-06-11T21:03:51.642Z,16.58
2023-06-11T21:06:18.890Z,9.88
2023-06-11T21:08:46.254Z,17.98
2023-06-11T21:11:14.079Z,13.85
2023-06-11T21:13:41.331Z,33.13
2023-06-11T21:16:08.788Z,11.23
2023-06-11T21:18:36.294Z,8.90
2023-06-11T21:21:03.577Z,7.88
2023-06-11T21:23:30.968Z,9.75
2023-06-11T21:25:58.335Z,9.80
2023-06-11T21:28:25.656Z,8.45
2023-06-11T21:30:52.992Z,11.45
2023-06-11T21:33:20.510Z,8.40
2023-06-11T21:35:51.042Z,8.65
2023-06-11T21:38:19.004Z,7.75
2023-06-11T21:40:46.358Z,6.97
2023-06-11T21:43:13.669Z,9.45
2023-06-11T21:45:41.012Z,10.70
2023-06-11T21:48:08.492Z,8.48
2023-06-11T21:50:35.937Z,10.27
2023-06-11T21:53:03.283Z,9.93
2023-06-11T21:55:30.688Z,12.60
2023-06-11T21:57:59.200Z,10.52
2023-06-11T22:00:27.202Z,7.95
2023-06-11T22:02:54.781Z,9.57
2023-06-11T22:05:22.411Z,9.85
2023-06-11T22:07:49.908Z,9.20
2023-06-11T22:10:17.240Z,10.93
2023-06-11T22:12:46.462Z,10.88
2023-06-11T22:15:14.403Z,9.40
2023-06-11T22:17:42.266Z,6.70
2023-06-11T22:20:11.977Z,8.43
2023-06-11T22:22:44.369Z,9.30
2023-06-11T22:25:13.556Z,8.57
2023-06-11T22:27:43.116Z,9.10
2023-06-11T22:30:12.223Z,10.30
2023-06-11T22:32:40.004Z,8.80
2023-06-11T22:35:08.018Z,8.05
2023-06-11T22:37:36.959Z,29.98
2023-06-11T22:40:06.264Z,8.45
2023-06-11T22:42:34.225Z,8.02
2023-06-11T22:45:01.580Z,8.27
2023-06-11T22:47:33.942Z,10.48
2023-06-11T22:50:02.194Z,9.00
2023-06-11T22:52:33.459Z,7.90
2023-06-11T22:55:00.694Z,7.43
2023-06-11T22:57:27.780Z,8.10
2023-06-11T22:59:55.098Z,8.73
2023-06-11T23:02:22.328Z,7.22
2023-06-11T23:04:51.581Z,8.98
2023-06-11T23:07:19.082Z,9.85
2023-06-11T23:09:46.372Z,8.90
2023-06-11T23:12:13.724Z,9.77
2023-06-11T23:14:41.074Z,10.27
2023-06-11T23:17:10.836Z,9.60
2023-06-11T23:19:38.902Z,10.43
2023-06-11T23:22:08.606Z,8.02
2023-06-11T23:24:40.660Z,7.55
2023-06-11T23:27:08.772Z,9.15
2023-06-11T23:29:36.290Z,7.35
2023-06-11T23:32:04.431Z,8.68
2023-06-11T23:34:31.810Z,10.80
2023-06-11T23:37:00.886Z,9.32
2023-06-11T23:39:28.854Z,6.75
2023-06-11T23:41:56.545Z,10.23
2023-06-11T23:44:23.813Z,8.50
2023-06-11T23:46:51.141Z,8.60
2023-06-11T23:49:18.492Z,5.50
2023-06-11T23:51:46.374Z,6.45
2023-06-11T23:54:13.797Z,6.47
2023-06-11T23:56:41.060Z,7.60
2023-06-11T23:59:08.383Z,9.20
